Time;durP1;ratioP1;P1;durP2;ratioP2;P2;SDS_P1;SDS_P2;PMS_P1;PMS_P2;Temp;Humidity;BMP_temperature;BMP_pressure;BME280_temperature;BME280_humidity;BME280_pressure;Samples;Min_cycle;Max_cycle;Signal;HPM_P1;HPM_P2
2022/04/30 00:00:20;;;;;;;4.47;3.43;;;;;;;8.12;58.46;101616.50;5087911;28;20198;-69
2022/04/30 00:02:46;;;;;;;7.50;4.40;;;;;;;8.09;59.33;101616.53;5093245;28;20202;-70
2022/04/30 00:05:14;;;;;;;6.03;3.50;;;;;;;8.09;59.04;101615.63;5087530;28;20708;-69
2022/04/30 00:07:41;;;;;;;7.27;3.90;;;;;;;8.06;60.22;101608.72;5086123;28;20229;-69
2022/04/30 00:10:07;;;;;;;9.07;3.37;;;;;;;8.04;60.80;101605.28;5087996;28;20302;-69
2022/04/30 00:12:35;;;;;;;6.90;3.40;;;;;;;8.03;59.79;101610.47;5087765;28;20226;-69
2022/04/30 00:15:02;;;;;;;6.00;3.50;;;;;;;8.02;60.04;101608.72;5087836;28;20867;-69
2022/04/30 00:17:28;;;;;;;6.77;4.07;;;;;;;8.03;60.16;101605.28;5087205;28;20599;-69
2022/04/30 00:19:55;;;;;;;5.23;3.40;;;;;;;8.01;60.04;101610.47;5087757;28;20194;-69
2022/04/30 00:22:22;;;;;;;5.33;3.63;;;;;;;7.96;62.36;101600.06;5085484;28;20212;-69
2022/04/30 00:24:49;;;;;;;5.23;3.20;;;;;;;7.92;62.21;101602.66;5086902;28;20213;-70
2022/04/30 00:27:17;;;;;;;6.37;3.47;;;;;;;7.90;64.25;101596.63;5089081;28;20224;-69
2022/04/30 00:29:46;;;;;;;4.33;3.33;;;;;;;7.84;64.71;101601.78;5085995;28;20198;-69
2022/04/30 00:32:13;;;;;;;5.60;4.17;;;;;;;7.78;69.44;101598.31;5086098;28;20201;-69
2022/04/30 00:34:41;;;;;;;4.60;3.50;;;;;;;7.67;71.38;101594.88;5087057;28;20747;-69
2022/04/30 00:37:07;;;;;;;5.53;3.33;;;;;;;7.64;74.45;101592.25;5085978;28;20760;-69
2022/04/30 00:39:35;;;;;;;5.83;3.93;;;;;;;7.58;76.80;101590.53;5087179;28;20205;-69
2022/04/30 00:42:03;;;;;;;5.67;3.10;;;;;;;7.49;75.63;101598.28;5087305;28;20746;-69
2022/04/30 00:44:29;;;;;;;4.27;3.30;;;;;;;7.48;79.64;101583.56;5084376;28;20190;-69
2022/04/30 00:46:58;;;;;;;5.10;3.70;;;;;;;7.51;80.83;101582.69;5081275;28;20186;-69
2022/04/30 00:49:24;;;;;;;4.97;3.13;;;;;;;7.48;82.03;101582.72;5087241;28;20205;-69
2022/04/30 00:51:52;;;;;;;4.70;3.30;;;;;;;7.37;76.88;101588.75;5087437;28;20462;-69
2022/04/30 00:54:21;;;;;;;6.10;4.07;;;;;;;7.30;79.31;101581.81;5087232;28;20581;-69
2022/04/30 00:56:50;;;;;;;5.37;3.63;;;;;;;7.32;81.82;101581.81;5085254;28;20214;-69
2022/04/30 00:59:19;;;;;;;5.50;4.00;;;;;;;7.24;77.97;101586.97;5086145;28;20201;-69
2022/04/30 01:01:47;;;;;;;4.87;3.60;;;;;;;7.22;78.40;101582.66;5086484;28;20193;-69
2022/04/30 01:04:16;;;;;;;6.20;3.70;;;;;;;7.20;79.13;101575.72;5086419;28;20213;-69
2022/04/30 01:06:49;;;;;;;6.57;3.90;;;;;;;7.15;81.90;101576.56;5086168;28;20273;-70
2022/04/30 01:09:17;;;;;;;8.40;3.97;;;;;;;7.09;83.03;101568.75;5086409;28;20202;-69
2022/04/30 15:46:12;;;;;;;3.53;1.90;;;;;;;18.61;29.91;101320.78;4979990;28;20216;-69
2022/04/30 15:51:23;;;;;;;2.73;1.60;;;;;;;18.54;30.35;101316.72;4984673;28;20232;-68
2022/04/30 15:53:51;;;;;;;3.70;1.80;;;;;;;18.47;30.60;101315.31;4985851;28;20209;-70
2022/04/30 15:56:19;;;;;;;4.57;2.10;;;;;;;18.42;31.04;101314.69;4986122;28;20205;-69
2022/04/30 15:58:49;;;;;;;1.70;1.60;;;;;;;18.34;30.87;101310.59;4980834;28;20324;-69
2022/04/30 16:01:18;;;;;;;5.10;1.87;;;;;;;18.18;30.84;101312.25;4987386;28;20626;-70
2022/04/30 16:03:44;;;;;;;4.13;1.80;;;;;;;18.05;30.53;101312.00;4986243;28;20212;-69
2022/04/30 16:06:10;;;;;;;4.83;2.07;;;;;;;17.97;31.11;101320.25;4984790;28;20202;-70
2022/04/30 16:08:37;;;;;;;3.00;1.87;;;;;;;17.97;30.96;101314.97;4979679;28;20197;-69
2022/04/30 16:11:03;;;;;;;3.43;1.83;;;;;;;17.97;31.02;101311.47;4983845;28;20201;-70
2022/04/30 16:13:30;;;;;;;3.03;1.97;;;;;;;17.94;32.26;101306.34;4981974;28;20211;-69
2022/04/30 16:15:57;;;;;;;2.97;1.70;;;;;;;17.85;31.35;101306.72;4986818;28;20251;-70
2022/04/30 16:18:25;;;;;;;4.40;2.03;;;;;;;17.69;30.60;101303.94;4982475;28;20631;-70
2022/04/30 16:20:51;;;;;;;4.43;3.40;;;;;;;17.62;30.70;101303.34;4986310;28;20208;-70
2022/04/30 16:23:18;;;;;;;4.43;2.70;;;;;;;17.54;30.63;101302.88;4989819;28;20205;-70
2022/04/30 16:25:44;;;;;;;2.50;1.93;;;;;;;17.58;31.04;101293.88;4985722;28;20578;-70
2022/04/30 16:28:11;;;;;;;4.07;1.90;;;;;;;17.53;31.43;101301.97;4979612;28;20288;-70
2022/04/30 16:30:38;;;;;;;2.30;1.60;;;;;;;17.49;31.05;101294.28;4983823;28;20202;-69
2022/04/30 16:33:05;;;;;;;2.33;1.63;;;;;;;17.44;32.02;101297.13;4971685;28;20226;-70
2022/04/30 16:35:34;;;;;;;2.80;1.80;;;;;;;17.38;31.68;101290.34;4985155;28;20834;-70
2022/04/30 16:38:00;;;;;;;2.60;1.70;;;;;;;17.36;31.99;101291.31;4989366;28;20216;-69
2022/04/30 16:40:27;;;;;;;3.57;1.60;;;;;;;17.32;32.37;101287.97;4986884;28;20204;-69
2022/04/30 16:42:53;;;;;;;2.40;1.80;;;;;;;17.27;31.60;101295.22;4987145;28;20220;-69
2022/04/30 16:45:20;;;;;;;3.07;1.90;;;;;;;17.18;31.91;101285.97;4984669;28;20205;-69
2022/04/30 16:47:46;;;;;;;4.33;1.87;;;;;;;17.13;32.27;101284.44;4987860;28;20197;-69
2022/04/30 16:50:14;;;;;;;3.03;1.60;;;;;;;17.10;31.85;101284.59;4978908;28;20292;-69
2022/04/30 16:52:41;;;;;;;2.43;1.90;;;;;;;17.04;31.50;101290.94;4979443;28;20217;-69
2022/04/30 16:57:55;;;;;;;4.43;1.90;;;;;;;16.86;31.24;101284.69;4981562;28;20241;-69
2022/04/30 17:00:23;;;;;;;1.93;1.50;;;;;;;16.78;31.64;101290.25;4988906;28;20296;-70
2022/04/30 17:02:49;;;;;;;4.80;2.03;;;;;;;16.74;31.93;101286.00;4986517;28;20220;-71
2022/04/30 17:05:17;;;;;;;3.20;2.07;;;;;;;16.73;31.92;101289.59;4985216;28;20291;-70
2022/04/30 17:07:49;;;;;;;3.67;1.90;;;;;;;16.66;31.84;101280.22;4988399;28;20209;-71
2022/04/30 17:10:16;;;;;;;2.57;2.00;;;;;;;16.60;31.95;101283.97;4986889;28;20204;-69
2022/04/30 17:12:42;;;;;;;3.13;1.73;;;;;;;16.52;32.72;101285.19;4983503;28;20239;-70
2022/04/30 17:15:10;;;;;;;2.57;1.67;;;;;;;16.46;33.18;101291.53;4980865;28;20213;-70
2022/04/30 17:17:41;;;;;;;4.00;1.83;;;;;;;16.37;33.01;101281.41;4985522;28;20312;-69
2022/04/30 17:20:12;;;;;;;4.10;1.90;;;;;;;16.31;32.83;101287.75;4985872;28;20258;-70
2022/04/30 17:22:39;;;;;;;7.47;2.00;;;;;;;16.21;33.32;101289.03;4986049;28;20228;-72
2022/04/30 17:25:09;;;;;;;2.60;1.73;;;;;;;16.17;33.15;101279.56;4985395;28;20315;-71
2022/04/30 17:27:35;;;;;;;6.57;2.17;;;;;;;16.12;33.91;101278.88;4981289;28;20756;-71
2022/04/30 17:30:02;;;;;;;3.77;1.80;;;;;;;16.07;33.63;101284.31;4982825;28;20193;-70
2022/04/30 17:37:58;;;;;;;3.60;2.67;;;;;;;15.93;34.32;101279.56;4982236;28;20225;-71
2022/04/30 17:40:26;;;;;;;3.83;2.50;;;;;;;15.88;34.04;101284.16;4978368;28;20204;-71
2022/04/30 17:42:53;;;;;;;4.97;2.47;;;;;;;15.83;34.78;101276.47;4985067;28;20232;-70
2022/04/30 17:45:20;;;;;;;5.40;2.37;;;;;;;15.77;34.72;101281.94;4984704;28;20219;-70
2022/04/30 17:47:47;;;;;;;3.63;2.30;;;;;;;15.70;35.55;101281.25;4980977;28;20201;-71
2022/04/30 17:50:13;;;;;;;4.07;2.27;;;;;;;15.64;35.51;101284.13;4982784;28;20215;-71
2022/04/30 17:52:40;;;;;;;5.77;2.40;;;;;;;15.59;35.36;101282.59;4983259;28;20281;-70
2022/04/30 17:55:07;;;;;;;3.40;1.97;;;;;;;15.52;36.01;101284.56;4985813;28;20261;-71
2022/04/30 17:57:35;;;;;;;3.40;2.27;;;;;;;15.41;36.10;101277.09;4988219;28;20216;-71
2022/04/30 18:00:01;;;;;;;5.67;2.10;;;;;;;15.33;36.21;101273.88;4985886;28;20291;-71
2022/04/30 18:02:38;;;;;;;2.60;2.10;;;;;;;15.24;36.39;101277.69;4987217;28;20942;-70
2022/04/30 18:05:06;;;;;;;5.23;2.60;;;;;;;15.19;36.38;101279.59;4988519;28;20734;-71
2022/04/30 18:07:33;;;;;;;2.50;2.07;;;;;;;15.10;37.09;101277.31;4990920;28;20226;-70
2022/04/30 18:09:59;;;;;;;3.70;2.30;;;;;;;14.98;37.33;101286.44;4989165;28;20209;-70
2022/04/30 18:12:26;;;;;;;4.53;2.20;;;;;;;14.89;37.45;101289.41;4989197;28;20356;-71
2022/04/30 18:14:54;;;;;;;3.23;2.07;;;;;;;14.81;38.10;101284.41;4991684;28;20209;-70
2022/04/30 18:17:22;;;;;;;5.87;2.37;;;;;;;14.69;38.09;101285.66;4986882;28;20202;-69
2022/04/30 18:19:48;;;;;;;3.87;2.03;;;;;;;14.64;37.71;101282.34;4981729;28;20223;-71
2022/04/30 18:22:15;;;;;;;2.20;2.00;;;;;;;14.58;38.82;101288.66;4989884;28;20223;-71
2022/04/30 18:24:41;;;;;;;7.10;2.57;;;;;;;14.47;38.48;101288.09;4989482;28;20207;-71
2022/04/30 18:27:08;;;;;;;5.57;2.50;;;;;;;14.37;38.81;101295.41;4990127;28;20213;-71
2022/04/30 18:29:34;;;;;;;3.03;2.30;;;;;;;14.26;39.18;101294.84;4988265;28;20210;-71
2022/04/30 18:32:02;;;;;;;3.73;2.20;;;;;;;14.14;39.32;101305.72;4986703;28;20213;-70
2022/04/30 18:34:29;;;;;;;3.33;2.30;;;;;;;14.06;39.42;101305.97;4986529;28;20201;-70
2022/04/30 18:36:57;;;;;;;4.80;2.53;;;;;;;13.98;39.50;101314.06;4980803;28;20213;-70
2022/04/30 18:39:23;;;;;;;4.83;2.73;;;;;;;13.93;40.75;101313.34;4980561;28;20245;-71
2022/04/30 18:41:50;;;;;;;3.20;2.47;;;;;;;13.81;41.71;101317.16;4980499;28;20227;-71
2022/04/30 18:44:18;;;;;;;4.40;2.73;;;;;;;13.72;41.00;101319.19;4994268;28;20211;-72
2022/04/30 18:46:44;;;;;;;4.23;2.67;;;;;;;13.62;41.67;101314.19;4989860;28;20201;-71
2022/04/30 18:49:12;;;;;;;5.83;3.03;;;;;;;13.53;42.11;101314.47;4985298;28;20202;-71
2022/04/30 18:51:38;;;;;;;5.27;2.70;;;;;;;13.46;41.21;101320.78;4981626;28;20239;-70
2022/04/30 19:02:17;;;;;;;4.83;2.70;;;;;;;13.10;42.64;101327.78;4992672;28;20733;-72
2022/04/30 19:04:45;;;;;;;6.57;3.57;;;;;;;13.03;42.98;101325.34;4994077;28;20211;-71
2022/04/30 19:07:11;;;;;;;5.07;3.20;;;;;;;12.98;44.05;101321.97;4982490;28;20618;-71
2022/04/30 19:09:38;;;;;;;5.53;3.40;;;;;;;12.92;44.25;101327.34;4987258;28;20312;-71
2022/04/30 19:12:05;;;;;;;5.40;2.80;;;;;;;12.87;43.29;101327.50;4992960;28;20219;-72
2022/04/30 19:14:32;;;;;;;4.93;3.27;;;;;;;12.82;43.57;101333.72;4993659;28;20232;-71
2022/04/30 19:16:59;;;;;;;4.90;3.37;;;;;;;12.72;44.21;101327.84;4998752;28;20599;-71
2022/04/30 19:19:25;;;;;;;5.20;3.73;;;;;;;12.65;44.50;101332.38;5000649;28;20661;-70
2022/04/30 19:21:53;;;;;;;6.63;3.93;;;;;;;12.59;44.80;101331.63;5010074;28;20237;-69
2022/04/30 19:24:21;;;;;;;5.50;3.53;;;;;;;12.46;45.27;101326.69;5015077;28;20213;-69
2022/04/30 19:26:47;;;;;;;4.23;3.07;;;;;;;12.36;45.79;101326.94;5008829;28;20212;-70
2022/04/30 19:29:17;;;;;;;4.67;2.73;;;;;;;12.27;45.19;101333.22;5015896;28;20201;-70
2022/04/30 19:31:45;;;;;;;8.00;3.57;;;;;;;12.17;45.77;101332.59;5006870;28;20237;-70
2022/04/30 19:34:11;;;;;;;5.30;3.10;;;;;;;12.09;46.36;101326.66;5009369;28;20216;-70
2022/04/30 19:36:38;;;;;;;8.37;3.30;;;;;;;12.01;46.59;101325.94;4993706;28;20216;-71
2022/04/30 19:39:05;;;;;;;4.33;3.23;;;;;;;11.93;47.28;101326.97;4999145;28;20235;-70
2022/04/30 19:41:32;;;;;;;5.23;3.60;;;;;;;11.86;47.01;101327.94;4991123;28;20222;-72
2022/04/30 19:43:58;;;;;;;6.57;3.10;;;;;;;11.79;47.38;101325.50;4998727;28;20203;-72
2022/04/30 19:46:25;;;;;;;5.10;2.97;;;;;;;11.73;46.49;101324.72;5003497;28;20207;-71
2022/04/30 19:48:52;;;;;;;6.70;3.23;;;;;;;11.69;47.61;101320.44;4984705;28;20512;-71
2022/04/30 19:51:19;;;;;;;5.13;3.10;;;;;;;11.64;47.19;101327.50;4990657;28;20304;-71
2022/04/30 19:53:45;;;;;;;3.57;3.03;;;;;;;11.62;47.47;101326.69;4976959;28;20216;-72
2022/04/30 19:56:13;;;;;;;5.90;3.20;;;;;;;11.58;47.16;101332.00;4988106;28;20669;-72
2022/04/30 19:58:40;;;;;;;4.27;3.00;;;;;;;11.56;47.56;101326.81;4986837;28;20214;-71
2022/04/30 20:01:06;;;;;;;4.23;2.90;;;;;;;11.47;47.53;101327.84;4993714;28;20210;-69
2022/04/30 20:03:35;;;;;;;3.63;2.73;;;;;;;11.35;47.48;101333.28;4991263;28;20210;-68
2022/04/30 20:06:01;;;;;;;4.03;2.90;;;;;;;11.26;47.53;101333.47;4997556;28;20296;-70
2022/04/30 20:08:28;;;;;;;3.53;2.90;;;;;;;11.17;48.02;101334.47;4988709;28;20205;-70
2022/04/30 20:19:08;;;;;;;7.10;3.47;;;;;;;10.90;48.08;101341.84;4988097;28;20242;-69
2022/04/30 20:21:34;;;;;;;6.23;3.40;;;;;;;10.83;48.62;101332.41;4986751;28;20733;-70
2022/04/30 20:24:01;;;;;;;5.93;3.30;;;;;;;10.76;49.09;101329.06;4992309;28;20206;-70
2022/04/30 20:26:27;;;;;;;4.77;3.60;;;;;;;10.73;48.66;101330.81;4991061;28;20683;-70
2022/04/30 20:28:55;;;;;;;6.03;3.80;;;;;;;10.69;49.25;101329.16;4980289;28;20201;-71
2022/04/30 20:36:49;;;;;;;7.33;4.30;;;;;;;10.41;49.95;101329.56;4987824;28;20231;-70
2022/04/30 20:39:17;;;;;;;5.90;4.27;;;;;;;10.38;50.45;101332.22;4982629;28;20233;-70
2022/04/30 20:41:44;;;;;;;8.07;4.83;;;;;;;10.33;50.14;101334.91;4983054;28;20224;-69
2022/04/30 20:44:12;;;;;;;7.83;4.60;;;;;;;10.27;50.33;101329.72;4995487;28;20470;-70
2022/04/30 20:46:39;;;;;;;7.73;4.70;;;;;;;10.22;50.39;101328.94;4989446;28;20208;-70
2022/04/30 20:49:06;;;;;;;8.00;5.87;;;;;;;10.15;52.01;101327.28;4989980;28;20196;-71
2022/04/30 20:51:34;;;;;;;9.13;5.40;;;;;;;10.08;50.91;101336.06;4989501;28;20287;-71
2022/04/30 20:54:02;;;;;;;10.63;5.33;;;;;;;10.01;51.38;101340.50;4980176;28;20202;-71
2022/04/30 20:56:29;;;;;;;8.67;5.57;;;;;;;9.94;52.15;101334.50;4982486;28;20205;-70
2022/04/30 20:58:56;;;;;;;7.53;5.57;;;;;;;9.84;53.24;101330.28;4981563;28;20206;-70
2022/04/30 21:01:24;;;;;;;7.20;5.63;;;;;;;9.75;53.89;101333.00;4980924;28;20224;-70
2022/04/30 21:03:50;;;;;;;11.73;6.10;;;;;;;9.64;55.05;101330.53;4980521;28;20207;-69
2022/04/30 21:06:16;;;;;;;9.77;5.10;;;;;;;9.52;57.04;101323.69;4985171;28;20714;-70
2022/04/30 21:08:44;;;;;;;8.50;5.60;;;;;;;9.46;59.93;101322.03;4986440;28;20208;-71
2022/04/30 21:11:11;;;;;;;9.13;5.83;;;;;;;9.36;58.97;101335.16;4984795;28;20204;-69
2022/04/30 21:13:37;;;;;;;8.60;5.80;;;;;;;9.25;61.14;101322.22;4984827;28;20203;-71
2022/04/30 21:16:04;;;;;;;8.07;5.23;;;;;;;9.19;63.78;101324.88;4991219;28;20222;-71
2022/04/30 21:18:32;;;;;;;7.70;5.27;;;;;;;9.13;66.45;101322.31;4990970;28;20441;-69
2022/04/30 21:20:59;;;;;;;8.73;5.87;;;;;;;8.99;63.77;101330.25;4985682;28;20466;-71
2022/04/30 21:23:25;;;;;;;9.67;5.60;;;;;;;8.86;63.28;101321.69;4990221;28;20290;-70
2022/04/30 21:25:52;;;;;;;7.77;5.30;;;;;;;8.78;65.16;101326.13;4988967;28;20208;-71
2022/04/30 21:28:20;;;;;;;7.90;5.37;;;;;;;8.70;67.29;101318.34;4990884;28;20214;-71
2022/04/30 21:30:49;;;;;;;7.27;5.33;;;;;;;8.60;66.52;101309.78;4994894;28;20205;-71
2022/04/30 21:33:16;;;;;;;8.47;5.13;;;;;;;8.55;68.09;101313.25;4989775;28;20582;-70
2022/04/30 21:35:45;;;;;;;8.70;5.10;;;;;;;8.43;69.63;101312.47;4986665;28;20201;-71
2022/04/30 21:38:12;;;;;;;9.20;6.00;;;;;;;8.31;69.85;101310.75;4990564;28;20250;-70
